Time;durP1;ratioP1;P1;durP2;ratioP2;P2;SDS_P1;SDS_P2;PMS_P1;PMS_P2;Temp;Humidity;BMP_temperature;BMP_pressure;BME280_temperature;BME280_humidity;BME280_pressure;Samples;Min_cycle;Max_cycle;Signal;HPM_P1;HPM_P2
2021/04/09 00:00:00;;;;;;;25.23;11.90;;;2.40;99.70;;;;;;4990323;28;20856;-69
2021/04/09 00:02:28;;;;;;;25.33;11.60;;;2.30;99.70;;;;;;4990433;28;20474;-70
2021/04/09 00:04:54;;;;;;;21.70;11.00;;;2.30;99.70;;;;;;4989874;28;20446;-68
2021/04/09 00:07:21;;;;;;;21.90;10.50;;;2.10;99.70;;;;;;4989678;28;20525;-68
2021/04/09 00:09:48;;;;;;;21.20;11.07;;;2.60;99.70;;;;;;4990162;28;20442;-68
2021/04/09 00:12:14;;;;;;;25.83;11.63;;;2.60;99.70;;;;;;4989885;28;20454;-68
2021/04/09 00:14:40;;;;;;;20.30;10.60;;;2.40;99.70;;;;;;4990075;28;20439;-68
2021/04/09 00:17:07;;;;;;;21.27;10.50;;;2.50;99.70;;;;;;4989773;28;20875;-69
2021/04/09 00:19:34;;;;;;;21.13;10.20;;;2.20;99.70;;;;;;4990133;28;20541;-68
2021/04/09 00:22:00;;;;;;;19.87;10.17;;;2.00;99.70;;;;;;4989744;28;20482;-69
2021/04/09 00:24:26;;;;;;;21.50;10.43;;;1.90;99.70;;;;;;4989819;28;20450;-69
2021/04/09 00:26:54;;;;;;;21.80;10.80;;;1.80;99.70;;;;;;4989014;28;20944;-69
2021/04/09 00:29:21;;;;;;;20.73;11.00;;;1.80;99.70;;;;;;4989179;28;20450;-67
2021/04/09 00:31:47;;;;;;;21.03;10.40;;;1.70;99.70;;;;;;4989760;28;20525;-70
2021/04/09 00:34:13;;;;;;;20.67;10.53;;;1.80;99.70;;;;;;4989828;28;20990;-68
2021/04/09 00:36:39;;;;;;;24.07;10.57;;;1.90;99.70;;;;;;4989055;28;20474;-69
2021/04/09 00:39:08;;;;;;;23.07;11.00;;;1.80;99.70;;;;;;4989622;28;20450;-68
2021/04/09 00:41:37;;;;;;;22.40;10.50;;;2.20;99.70;;;;;;4989399;28;20485;-67
2021/04/09 00:44:05;;;;;;;20.20;10.10;;;2.10;99.70;;;;;;4989756;28;20908;-68
2021/04/09 00:46:31;;;;;;;20.13;10.07;;;1.80;99.70;;;;;;4989178;28;20876;-69
2021/04/09 00:48:57;;;;;;;23.70;11.37;;;1.60;99.70;;;;;;4989563;28;20449;-70
2021/04/09 00:51:23;;;;;;;21.60;10.70;;;1.50;99.70;;;;;;4987625;28;20442;-70
2021/04/09 00:53:50;;;;;;;22.00;10.50;;;1.40;99.70;;;;;;4989571;28;20500;-68
2021/04/09 00:56:20;;;;;;;18.90;9.50;;;1.40;99.70;;;;;;4988846;28;21048;-69
2021/04/09 00:58:46;;;;;;;21.63;10.43;;;1.50;99.70;;;;;;4989328;28;20462;-68
2021/04/09 01:01:14;;;;;;;18.80;9.80;;;1.60;99.70;;;;;;4989555;28;20450;-69
2021/04/09 01:03:40;;;;;;;19.37;9.57;;;1.80;99.70;;;;;;4989444;28;20449;-68
2021/04/09 01:06:07;;;;;;;22.70;10.47;;;1.60;99.70;;;;;;4988882;28;20478;-68
2021/04/09 01:08:35;;;;;;;28.00;12.83;;;1.60;99.70;;;;;;4989303;28;20472;-70
2021/04/09 01:11:02;;;;;;;18.70;9.93;;;1.80;99.70;;;;;;4989730;28;20458;-69
2021/04/09 01:13:28;;;;;;;21.80;9.73;;;1.80;99.70;;;;;;4989745;28;20481;-70
2021/04/09 01:15:54;;;;;;;24.13;11.00;;;1.90;99.70;;;;;;4988894;28;20466;-68
2021/04/09 01:18:29;;;;;;;21.63;10.17;;;1.60;99.70;;;;;;4989101;28;20450;-69
2021/04/09 01:21:07;;;;;;;22.33;10.00;;;1.70;99.70;;;;;;4989598;28;20446;-69
2021/04/09 01:23:52;;;;;;;24.07;10.60;;;1.50;99.70;;;;;;4989349;28;21073;-69
2021/04/09 01:27:08;;;;;;;21.50;10.17;;;1.50;99.70;;;;;;4988964;28;20470;-68
2021/04/09 01:30:02;;;;;;;19.67;9.70;;;1.50;99.70;;;;;;4948017;28;20440;-69
2021/04/09 01:32:31;;;;;;;23.40;10.00;;;1.90;99.70;;;;;;4938575;29;20488;-69
2021/04/09 01:35:04;;;;;;;19.90;9.93;;;1.60;99.70;;;;;;4978691;28;20446;-69
2021/04/09 01:37:38;;;;;;;20.70;10.33;;;1.80;99.70;;;;;;4988978;28;20891;-71
2021/04/09 01:40:10;;;;;;;23.60;10.40;;;2.00;99.70;;;;;;4990626;28;20446;-68
2021/04/09 01:42:39;;;;;;;24.40;11.70;;;1.70;99.70;;;;;;4992884;28;20576;-69
2021/04/09 01:45:07;;;;;;;20.37;9.97;;;1.50;99.70;;;;;;4992243;28;20450;-69
2021/04/09 01:47:34;;;;;;;22.13;10.90;;;1.30;99.70;;;;;;4992313;28;20688;-68
2021/04/09 01:50:03;;;;;;;20.60;10.30;;;1.20;99.70;;;;;;4991425;28;20450;-68
2021/04/09 01:52:33;;;;;;;20.70;10.53;;;1.10;99.70;;;;;;4992671;28;20505;-69
2021/04/09 01:55:01;;;;;;;21.40;10.90;;;1.00;99.70;;;;;;4991987;28;20450;-69
2021/04/09 01:57:28;;;;;;;26.10;11.20;;;1.00;99.70;;;;;;4992272;28;20520;-68
2021/04/09 01:59:57;;;;;;;26.60;10.70;;;1.00;99.70;;;;;;4992786;28;20536;-69
2021/04/09 02:02:23;;;;;;;20.77;10.70;;;1.00;99.70;;;;;;4992590;28;20485;-68
2021/04/09 02:04:51;;;;;;;22.33;11.10;;;1.10;99.70;;;;;;4992480;28;20457;-69
2021/04/09 02:07:19;;;;;;;18.50;10.23;;;1.00;99.70;;;;;;4991912;28;20478;-69
2021/04/09 02:09:46;;;;;;;22.03;11.20;;;1.10;99.70;;;;;;4992772;28;20454;-69
2021/04/09 02:12:13;;;;;;;20.83;11.20;;;1.10;99.70;;;;;;4992321;28;21053;-69
2021/04/09 02:14:42;;;;;;;22.90;10.73;;;1.00;99.70;;;;;;4992487;28;20520;-69
2021/04/09 02:17:09;;;;;;;22.70;11.23;;;0.90;99.70;;;;;;4991811;28;20505;-69
2021/04/09 02:19:35;;;;;;;25.10;11.83;;;0.90;99.70;;;;;;4991889;28;20473;-69
2021/04/09 02:22:03;;;;;;;20.87;10.70;;;0.90;99.70;;;;;;4991965;28;20489;-69
2021/04/09 02:24:29;;;;;;;25.00;11.10;;;0.80;99.70;;;;;;4992236;28;20454;-70
2021/04/09 02:26:55;;;;;;;25.87;11.40;;;0.70;99.70;;;;;;4991358;28;20524;-69
2021/04/09 02:29:22;;;;;;;20.20;10.30;;;0.80;99.70;;;;;;4992035;28;20805;-69
2021/04/09 02:31:49;;;;;;;22.67;11.17;;;0.70;99.70;;;;;;4992068;28;20438;-69
2021/04/09 02:34:16;;;;;;;18.77;10.47;;;0.70;99.70;;;;;;4991614;28;20533;-69
2021/04/09 02:36:43;;;;;;;21.13;10.67;;;0.70;99.70;;;;;;4991063;28;20987;-67
2021/04/09 02:39:14;;;;;;;21.93;10.67;;;0.70;99.70;;;;;;4992033;28;20446;-69
2021/04/09 02:41:42;;;;;;;22.13;10.50;;;0.80;99.70;;;;;;4991989;28;20490;-69
2021/04/09 02:44:08;;;;;;;21.40;10.70;;;0.80;99.70;;;;;;4991844;28;20449;-68
2021/04/09 02:46:39;;;;;;;24.43;10.30;;;0.90;99.70;;;;;;4990988;28;20470;-69
2021/04/09 02:49:15;;;;;;;23.80;10.33;;;0.90;99.70;;;;;;4991721;28;20457;-70
2021/04/09 02:51:43;;;;;;;21.13;10.90;;;0.70;99.70;;;;;;4990899;28;20442;-69
2021/04/09 02:54:15;;;;;;;23.80;10.50;;;0.80;99.70;;;;;;4991999;28;20501;-68
2021/04/09 02:56:42;;;;;;;19.47;10.07;;;0.70;99.70;;;;;;4991070;28;20536;-66
2021/04/09 02:59:12;;;;;;;20.50;10.37;;;0.70;99.70;;;;;;4991555;28;20446;-68
2021/04/09 03:01:40;;;;;;;21.53;10.53;;;0.70;99.70;;;;;;4991563;28;20532;-68
2021/04/09 03:04:08;;;;;;;25.10;10.80;;;0.50;99.70;;;;;;4991376;28;20458;-69
2021/04/09 03:06:36;;;;;;;23.30;11.30;;;0.60;99.70;;;;;;4990417;28;20501;-69
2021/04/09 03:09:04;;;;;;;24.30;10.90;;;0.50;99.70;;;;;;4991031;28;20957;-69
2021/04/09 03:11:31;;;;;;;24.33;10.80;;;0.40;99.70;;;;;;4991619;28;20450;-69
2021/04/09 03:13:57;;;;;;;19.50;10.00;;;0.50;99.70;;;;;;4991467;28;20963;-69
2021/04/09 03:16:26;;;;;;;23.37;10.30;;;0.60;99.70;;;;;;4990738;28;20462;-68
2021/04/09 03:18:52;;;;;;;18.30;10.00;;;0.60;99.70;;;;;;4991151;28;20541;-69
2021/04/09 03:21:19;;;;;;;23.47;10.70;;;0.70;99.70;;;;;;4990673;28;20453;-69
2021/04/09 03:23:45;;;;;;;19.87;9.80;;;0.70;99.70;;;;;;4991182;28;20450;-69
2021/04/09 03:26:11;;;;;;;19.60;9.77;;;0.60;99.70;;;;;;4990520;28;20466;-69
2021/04/09 03:28:38;;;;;;;21.73;10.00;;;0.70;99.70;;;;;;4990416;28;20454;-68
2021/04/09 03:31:04;;;;;;;20.80;9.73;;;0.50;99.70;;;;;;4990750;28;20453;-68
2021/04/09 03:33:31;;;;;;;18.70;9.80;;;0.50;99.70;;;;;;4991030;28;20451;-68
2021/04/09 03:35:57;;;;;;;18.47;9.27;;;0.50;99.70;;;;;;4990077;28;20815;-68
2021/04/09 03:38:23;;;;;;;18.20;9.10;;;0.50;99.70;;;;;;4990620;28;20442;-68
2021/04/09 03:40:49;;;;;;;20.20;10.27;;;0.60;99.70;;;;;;4990719;28;20446;-68
2021/04/09 03:43:16;;;;;;;18.43;9.90;;;0.60;99.70;;;;;;4990381;28;21011;-68
2021/04/09 03:45:44;;;;;;;18.40;10.23;;;0.50;99.70;;;;;;4989765;28;20545;-70
2021/04/09 03:48:10;;;;;;;19.60;10.23;;;0.50;99.70;;;;;;4990317;28;20457;-68
2021/04/09 03:50:36;;;;;;;20.93;9.97;;;0.50;99.70;;;;;;4989204;28;20469;-68
2021/04/09 03:53:04;;;;;;;22.23;9.90;;;0.50;99.70;;;;;;4990534;28;20446;-70
2021/04/09 03:55:30;;;;;;;21.20;9.80;;;0.50;99.70;;;;;;4989819;28;20970;-68
2021/04/09 03:57:57;;;;;;;21.47;10.53;;;0.50;99.70;;;;;;4989921;28;20478;-68
2021/04/09 04:00:23;;;;;;;19.07;9.40;;;0.40;99.70;;;;;;4990520;28;20512;-70
2021/04/09 04:02:51;;;;;;;20.83;9.20;;;0.40;99.70;;;;;;4990070;28;20485;-69
2021/04/09 04:05:18;;;;;;;23.60;10.60;;;0.50;99.70;;;;;;4989341;28;20450;-68
2021/04/09 04:07:45;;;;;;;23.93;10.20;;;0.50;99.70;;;;;;4990188;28;20486;-68
2021/04/09 04:10:12;;;;;;;22.80;9.93;;;0.50;99.70;;;;;;4990618;28;20944;-68
2021/04/09 04:12:38;;;;;;;21.50;9.90;;;0.40;99.70;;;;;;4990448;28;20446;-69
2021/04/09 04:15:06;;;;;;;21.80;9.83;;;0.40;99.70;;;;;;4990129;28;20450;-68
2021/04/09 04:17:32;;;;;;;20.33;9.60;;;0.20;99.70;;;;;;4990089;28;20470;-68
2021/04/09 04:19:59;;;;;;;22.33;9.37;;;0.20;99.70;;;;;;4990129;28;20450;-67
2021/04/09 04:22:26;;;;;;;18.00;9.50;;;0.10;99.70;;;;;;4990300;28;20857;-68
2021/04/09 04:24:53;;;;;;;22.67;10.23;;;0.10;99.70;;;;;;4989786;28;20794;-67
2021/04/09 04:27:19;;;;;;;19.80;9.57;;;0.20;99.70;;;;;;4990063;28;20482;-67
2021/04/09 04:29:45;;;;;;;21.03;9.57;;;0.20;99.70;;;;;;4990555;28;20450;-68
2021/04/09 04:32:11;;;;;;;23.93;10.60;;;0.20;99.70;;;;;;4989899;28;20935;-68
2021/04/09 04:34:37;;;;;;;18.87;9.77;;;0.20;99.70;;;;;;4989664;28;20458;-68
2021/04/09 04:37:05;;;;;;;15.90;8.50;;;0.20;99.70;;;;;;4989075;28;20692;-69
2021/04/09 04:39:31;;;;;;;17.90;8.37;;;0.20;99.70;;;;;;4989926;28;20508;-68
2021/04/09 04:41:57;;;;;;;18.63;9.47;;;0.20;99.70;;;;;;4990803;28;20482;-69
2021/04/09 04:44:23;;;;;;;16.40;8.80;;;0.20;99.70;;;;;;4989968;28;20533;-69
2021/04/09 04:46:50;;;;;;;15.90;8.00;;;0.40;99.70;;;;;;4988665;28;20466;-68
2021/04/09 04:49:16;;;;;;;21.20;8.70;;;0.70;99.70;;;;;;4988030;28;20451;-68
2021/04/09 04:51:42;;;;;;;16.50;9.00;;;0.90;99.70;;;;;;4989871;28;20438;-68
2021/04/09 04:54:09;;;;;;;16.10;9.00;;;0.70;99.70;;;;;;4990022;28;20446;-69
2021/04/09 04:56:35;;;;;;;16.37;8.70;;;0.50;99.70;;;;;;4988778;28;21006;-68
2021/04/09 04:59:01;;;;;;;16.70;9.23;;;0.50;99.70;;;;;;4989361;28;20839;-67
2021/04/09 05:01:28;;;;;;;17.90;9.97;;;0.40;99.70;;;;;;4989367;28;20446;-68
2021/04/09 05:03:54;;;;;;;21.37;10.37;;;0.40;99.70;;;;;;4989463;28;20446;-67
2021/04/09 05:06:20;;;;;;;22.03;11.03;;;0.40;99.70;;;;;;4988793;28;20474;-68
2021/04/09 05:08:46;;;;;;;17.30;9.17;;;0.30;99.70;;;;;;4988997;28;20816;-69
2021/04/09 05:11:14;;;;;;;19.63;9.93;;;0.60;99.70;;;;;;4989219;28;20492;-69
2021/04/09 05:13:40;;;;;;;20.70;9.80;;;0.60;99.70;;;;;;4989363;28;20450;-68
2021/04/09 05:16:07;;;;;;;23.57;10.67;;;0.50;99.70;;;;;;4991729;28;20469;-68
2021/04/09 05:18:33;;;;;;;22.63;10.90;;;0.50;99.70;;;;;;4993336;28;20508;-69
2021/04/09 05:20:59;;;;;;;23.33;10.70;;;0.50;99.70;;;;;;4993350;28;20442;-68
2021/04/09 05:23:25;;;;;;;29.63;10.60;;;0.60;99.70;;;;;;4992882;28;21025;-69
2021/04/09 05:25:51;;;;;;;23.13;11.00;;;0.50;99.70;;;;;;4992739;28;20833;-70
2021/04/09 05:28:18;;;;;;;20.10;10.43;;;0.50;99.70;;;;;;4992555;28;20458;-69
2021/04/09 05:30:44;;;;;;;19.63;9.80;;;0.70;99.70;;;;;;4993511;28;20450;-68
2021/04/09 05:33:11;;;;;;;19.17;10.23;;;0.70;99.70;;;;;;4992836;28;20481;-68
2021/04/09 05:35:37;;;;;;;21.17;9.70;;;0.70;99.70;;;;;;4992400;28;20450;-70
2021/04/09 05:38:03;;;;;;;17.83;9.50;;;1.00;99.70;;;;;;4992613;28;20833;-68
2021/04/09 05:40:29;;;;;;;20.80;10.10;;;0.90;99.70;;;;;;4992990;28;20450;-69
2021/04/09 05:42:57;;;;;;;21.50;9.50;;;0.90;99.70;;;;;;4992539;28;21022;-68
2021/04/09 05:45:24;;;;;;;20.30;9.90;;;1.20;99.70;;;;;;4992171;28;20529;-70
2021/04/09 05:47:51;;;;;;;18.20;9.70;;;1.20;99.70;;;;;;4992317;28;20495;-68
2021/04/09 05:50:18;;;;;;;19.93;9.67;;;1.20;99.70;;;;;;4991436;28;20969;-68
2021/04/09 05:52:44;;;;;;;26.10;10.00;;;1.30;99.70;;;;;;4992695;28;20520;-70
2021/04/09 05:55:11;;;;;;;20.53;11.10;;;1.50;99.70;;;;;;4992411;28;20804;-68
2021/04/09 05:57:37;;;;;;;25.13;11.80;;;1.70;99.70;;;;;;4992184;28;20474;-68
2021/04/09 06:00:05;;;;;;;46.60;18.20;;;1.80;99.70;;;;;;4992595;28;20442;-68
2021/04/09 06:02:32;;;;;;;24.50;11.57;;;1.90;99.70;;;;;;4992345;28;20489;-69
2021/04/09 06:04:59;;;;;;;18.70;9.63;;;1.90;99.70;;;;;;4991888;28;20442;-69
2021/04/09 06:07:26;;;;;;;19.20;9.70;;;2.10;99.70;;;;;;4991940;28;20849;-69
2021/04/09 06:09:52;;;;;;;20.67;9.90;;;2.40;99.70;;;;;;4992365;28;20454;-68
2021/04/09 06:12:18;;;;;;;20.50;9.60;;;2.60;99.70;;;;;;4992218;28;20935;-68
2021/04/09 06:14:45;;;;;;;17.20;9.03;;;2.70;99.70;;;;;;4992657;28;20443;-68
2021/04/09 06:17:11;;;;;;;19.70;10.00;;;2.80;99.70;;;;;;4991157;28;20462;-68
2021/04/09 06:19:38;;;;;;;19.47;9.83;;;2.70;99.70;;;;;;4991993;28;20664;-69
2021/04/09 06:22:04;;;;;;;17.40;9.20;;;2.80;99.70;;;;;;4992241;28;21003;-70
2021/04/09 06:24:30;;;;;;;20.07;10.13;;;2.90;99.70;;;;;;4992350;28;20442;-69
2021/04/09 06:26:56;;;;;;;21.03;10.10;;;3.00;99.70;;;;;;4989950;28;20994;-69
2021/04/09 06:29:22;;;;;;;19.83;10.20;;;3.20;99.70;;;;;;4992098;28;20892;-69
2021/04/09 06:31:49;;;;;;;22.13;10.27;;;3.30;99.70;;;;;;4991940;28;20466;-69
2021/04/09 06:34:15;;;;;;;25.90;10.57;;;3.20;99.70;;;;;;4992222;28;20454;-69
2021/04/09 06:36:42;;;;;;;25.83;12.00;;;3.30;99.70;;;;;;4991301;28;20466;-68
2021/04/09 06:39:08;;;;;;;21.20;10.13;;;3.30;99.70;;;;;;4991881;28;21144;-69
2021/04/09 06:41:35;;;;;;;19.50;10.43;;;3.20;99.70;;;;;;4991568;28;20454;-70
2021/04/09 06:44:01;;;;;;;18.23;10.70;;;3.70;99.70;;;;;;4991825;28;20454;-69
2021/04/09 06:46:28;;;;;;;26.47;11.20;;;3.80;99.70;;;;;;4991523;28;20470;-69
2021/04/09 06:48:55;;;;;;;25.27;12.17;;;3.70;99.70;;;;;;4991252;28;20541;-68
2021/04/09 06:51:22;;;;;;;25.30;13.00;;;4.10;99.70;;;;;;4990671;28;20528;-69
2021/04/09 06:53:49;;;;;;;32.80;15.77;;;4.50;99.70;;;;;;4991825;28;20830;-69
2021/04/09 06:56:16;;;;;;;25.07;12.97;;;4.90;99.70;;;;;;4990899;28;20466;-69
2021/04/09 06:58:45;;;;;;;22.20;11.50;;;5.10;99.70;;;;;;4991293;28;20454;-69
2021/04/09 07:01:13;;;;;;;52.37;22.40;;;5.10;99.60;;;;;;4991372;28;20545;-69
2021/04/09 07:03:39;;;;;;;37.67;16.63;;;5.20;99.70;;;;;;4991284;28;20482;-69
2021/04/09 07:06:06;;;;;;;37.97;18.23;;;5.90;97.50;;;;;;4990643;28;20999;-70
2021/04/09 07:08:38;;;;;;;24.77;11.90;;;6.20;95.80;;;;;;4991047;28;20451;-68
2021/04/09 07:11:05;;;;;;;20.53;10.93;;;6.40;97.30;;;;;;4991399;28;20834;-70
2021/04/09 07:13:31;;;;;;;27.90;13.20;;;6.90;95.60;;;;;;4991092;28;20497;-70
2021/04/09 07:15:57;;;;;;;18.97;10.73;;;6.60;95.20;;;;;;4990482;28;20481;-70
2021/04/09 07:18:48;;;;;;;21.30;10.43;;;7.10;94.90;;;;;;4990820;28;20534;-70
2021/04/09 07:21:21;;;;;;;19.83;10.53;;;7.30;93.20;;;;;;4991173;28;20512;-69
2021/04/09 07:23:48;;;;;;;20.10;11.27;;;7.30;93.30;;;;;;4991697;28;20485;-68
2021/04/09 07:26:38;;;;;;;23.37;12.07;;;7.20;93.70;;;;;;4990547;28;20474;-68
2021/04/09 07:29:04;;;;;;;20.10;12.23;;;7.20;93.10;;;;;;4990896;28;20438;-69
2021/04/09 07:31:32;;;;;;;27.53;11.53;;;7.10;93.90;;;;;;4991310;28;20445;-68
2021/04/09 07:33:59;;;;;;;22.93;11.97;;;7.10;94.20;;;;;;4990991;28;20447;-68
2021/04/09 07:36:26;;;;;;;24.13;11.77;;;7.50;93.30;;;;;;4990527;28;20998;-69
2021/04/09 07:38:52;;;;;;;20.50;12.13;;;7.30;94.00;;;;;;4990510;28;20469;-70
2021/04/09 07:41:19;;;;;;;22.33;11.40;;;7.60;93.20;;;;;;4991474;28;20883;-69
2021/04/09 07:43:46;;;;;;;21.00;11.70;;;7.70;93.00;;;;;;4993368;28;20490;-67
2021/04/09 07:46:20;;;;;;;21.90;11.93;;;8.00;92.30;;;;;;4996732;28;20474;-69
2021/04/09 07:48:49;;;;;;;27.43;12.63;;;7.90;92.10;;;;;;5004782;28;20987;-71
2021/04/09 07:51:20;;;;;;;20.60;11.40;;;7.70;93.20;;;;;;5009747;28;20441;-65
2021/04/09 07:53:47;;;;;;;29.53;15.13;;;7.50;94.00;;;;;;5010339;28;20876;-66
2021/04/09 07:56:17;;;;;;;21.77;11.90;;;7.50;94.00;;;;;;4995834;28;21090;-70
2021/04/09 07:58:45;;;;;;;28.10;13.40;;;7.40;94.50;;;;;;4988270;28;20680;-69
2021/04/09 08:01:20;;;;;;;19.97;11.40;;;7.50;94.00;;;;;;5009482;28;20467;-65
2021/04/09 08:03:46;;;;;;;21.33;11.90;;;7.50;94.30;;;;;;5009082;28;20491;-69
2021/04/09 08:06:15;;;;;;;25.77;14.23;;;7.60;93.20;;;;;;5008099;28;20482;-68
2021/04/09 08:08:57;;;;;;;23.97;11.90;;;7.40;93.60;;;;;;5006805;28;20804;-69
2021/04/09 08:11:27;;;;;;;20.00;9.90;;;7.40;93.90;;;;;;5007977;28;20445;-69
2021/04/09 08:14:05;;;;;;;19.60;10.33;;;7.50;94.20;;;;;;5008498;28;20450;-71
2021/04/09 08:16:34;;;;;;;18.60;9.60;;;7.80;94.50;;;;;;5008770;28;20469;-70
2021/04/09 08:19:03;;;;;;;20.30;10.00;;;8.00;93.70;;;;;;5000880;28;20446;-68
2021/04/09 08:21:31;;;;;;;19.13;9.50;;;8.10;92.80;;;;;;5002291;28;20480;-65
2021/04/09 08:23:59;;;;;;;16.30;8.70;;;8.40;92.40;;;;;;4994965;28;20477;-70
2021/04/09 08:26:26;;;;;;;20.73;8.93;;;8.60;90.20;;;;;;4990747;28;20832;-68
2021/04/09 08:28:53;;;;;;;17.00;9.10;;;8.60;91.30;;;;;;4993757;28;20547;-67
2021/04/09 08:31:20;;;;;;;15.50;7.77;;;8.80;91.50;;;;;;5005559;28;20531;-68
2021/04/09 08:33:47;;;;;;;14.07;7.20;;;8.90;88.70;;;;;;5003495;28;20449;-69
2021/04/09 08:36:14;;;;;;;16.67;7.40;;;8.90;89.20;;;;;;5001547;28;20473;-69
2021/04/09 08:38:41;;;;;;;13.47;7.53;;;9.10;88.90;;;;;;5000828;28;20848;-68
2021/04/09 08:41:10;;;;;;;13.50;7.00;;;9.40;88.00;;;;;;4999958;28;20459;-68
2021/04/09 08:43:36;;;;;;;14.00;7.83;;;9.40;87.30;;;;;;4996365;28;20993;-68
2021/04/09 08:46:03;;;;;;;13.30;7.83;;;9.40;87.70;;;;;;4996680;28;20551;-66
2021/04/09 08:48:31;;;;;;;12.80;8.00;;;9.60;88.40;;;;;;4993580;28;20461;-70
2021/04/09 08:50:57;;;;;;;13.80;8.10;;;9.60;87.80;;;;;;4996063;28;20812;-69
2021/04/09 08:53:25;;;;;;;19.27;7.87;;;9.80;87.20;;;;;;5007002;28;20470;-65
2021/04/09 08:55:51;;;;;;;13.90;8.13;;;9.70;86.80;;;;;;5002876;28;20454;-69
2021/04/09 08:58:19;;;;;;;16.30;8.87;;;9.70;87.80;;;;;;4999286;28;20476;-69
2021/04/09 09:00:47;;;;;;;13.00;7.73;;;9.80;88.20;;;;;;4997033;28;20461;-69
2021/04/09 09:03:26;;;;;;;22.87;8.07;;;9.80;86.20;;;;;;4996880;28;20469;-69
2021/04/09 09:05:59;;;;;;;13.27;7.20;;;9.90;86.70;;;;;;5000188;28;21076;-67
2021/04/09 09:09:00;;;;;;;13.00;7.23;;;10.00;86.30;;;;;;5005852;28;20895;-68
2021/04/09 09:11:50;;;;;;;13.83;6.43;;;10.10;83.80;;;;;;4994583;28;20861;-64
2021/04/09 09:14:45;;;;;;;14.33;6.60;;;10.10;84.80;;;;;;5005512;28;20468;-65
2021/04/09 09:17:39;;;;;;;12.83;7.00;;;10.20;83.90;;;;;;5007771;28;20608;-69
2021/04/09 09:20:18;;;;;;;10.33;6.40;;;10.40;82.70;;;;;;5002628;28;20463;-69
2021/04/09 09:23:11;;;;;;;14.93;7.03;;;10.50;81.00;;;;;;4998937;28;20558;-68
2021/04/09 09:25:41;;;;;;;12.47;6.80;;;10.70;83.10;;;;;;4996743;28;20446;-70
2021/04/09 09:28:16;;;;;;;9.70;6.37;;;10.70;79.60;;;;;;4995652;28;20954;-70
2021/04/09 09:30:54;;;;;;;16.23;7.80;;;10.90;81.60;;;;;;4997577;28;21032;-66
2021/04/09 09:33:22;;;;;;;18.60;8.67;;;10.90;81.30;;;;;;5006905;28;20446;-69
2021/04/09 09:36:03;;;;;;;14.77;7.50;;;10.90;81.80;;;;;;5005538;28;20454;-69
2021/04/09 09:38:54;;;;;;;16.03;8.40;;;10.70;84.40;;;;;;4993694;28;20449;-67
2021/04/09 09:41:39;;;;;;;16.17;8.37;;;10.70;82.80;;;;;;5002232;28;20607;-68
2021/04/09 09:44:32;;;;;;;20.23;9.30;;;10.80;81.80;;;;;;5004791;28;20539;-67
2021/04/09 09:47:03;;;;;;;17.63;8.90;;;10.80;81.90;;;;;;5005658;28;20465;-69
2021/04/09 09:49:33;;;;;;;20.57;8.80;;;11.00;82.40;;;;;;5007382;28;20954;-65
2021/04/09 09:51:59;;;;;;;20.20;9.70;;;11.10;82.40;;;;;;4994763;28;20977;-65
2021/04/09 09:54:28;;;;;;;20.30;9.60;;;11.00;82.10;;;;;;5006770;28;20449;-69
2021/04/09 09:56:56;;;;;;;21.40;10.80;;;11.00;81.30;;;;;;4994946;28;20495;-67
2021/04/09 09:59:26;;;;;;;18.60;9.20;;;11.00;81.90;;;;;;4998214;28;20832;-69
2021/04/09 10:01:55;;;;;;;20.07;9.07;;;11.10;81.80;;;;;;5004453;28;20460;-65
2021/04/09 10:04:22;;;;;;;19.47;9.60;;;11.30;82.20;;;;;;5008811;28;20457;-70
2021/04/09 10:06:51;;;;;;;20.20;9.27;;;11.20;82.10;;;;;;5009752;28;20784;-70
2021/04/09 10:09:28;;;;;;;15.73;8.60;;;11.20;82.00;;;;;;4992112;28;20512;-70
2021/04/09 10:11:55;;;;;;;15.83;9.13;;;11.30;82.10;;;;;;5007546;28;20449;-68
2021/04/09 10:14:22;;;;;;;15.80;8.50;;;11.40;82.40;;;;;;5006655;28;20450;-66
2021/04/09 10:16:48;;;;;;;21.63;9.40;;;11.50;81.50;;;;;;5005563;28;20469;-68
2021/04/09 10:19:15;;;;;;;16.93;9.00;;;11.50;81.20;;;;;;5006161;28;20458;-66
2021/04/09 10:21:43;;;;;;;19.30;9.20;;;11.70;82.40;;;;;;5001145;28;20544;-68
2021/04/09 10:24:12;;;;;;;23.73;9.20;;;11.70;82.80;;;;;;5007044;28;20576;-68
2021/04/09 10:26:41;;;;;;;16.47;9.60;;;11.80;80.80;;;;;;5000079;28;20485;-68
2021/04/09 10:29:18;;;;;;;18.03;8.83;;;11.80;81.10;;;;;;5000950;28;20454;-70
2021/04/09 10:31:44;;;;;;;17.50;8.47;;;12.00;79.50;;;;;;4990162;28;20537;-69
2021/04/09 10:34:11;;;;;;;15.83;8.00;;;12.10;79.70;;;;;;5000929;28;20445;-68
2021/04/09 10:36:37;;;;;;;17.20;9.03;;;12.20;81.00;;;;;;5009530;28;20994;-68
2021/04/09 10:39:12;;;;;;;14.17;8.00;;;12.30;79.40;;;;;;5002973;28;20454;-69
2021/04/09 10:41:40;;;;;;;9.67;5.97;;;12.50;81.90;;;;;;5000954;28;20461;-69
2021/04/09 10:44:11;;;;;;;8.30;5.53;;;12.90;77.80;;;;;;4998756;28;20485;-67
2021/04/09 10:46:39;;;;;;;6.03;4.30;;;13.10;77.50;;;;;;4999106;28;20483;-68
2021/04/09 10:49:08;;;;;;;8.00;4.00;;;13.00;72.90;;;;;;5000027;28;20442;-71
2021/04/09 10:51:36;;;;;;;5.33;3.73;;;13.00;71.90;;;;;;4997592;28;20806;-68
2021/04/09 10:54:06;;;;;;;9.40;4.00;;;13.00;72.50;;;;;;5003972;28;20449;-69
2021/04/09 10:56:33;;;;;;;6.83;3.77;;;13.10;71.00;;;;;;4999595;28;20473;-68
2021/04/09 10:58:59;;;;;;;6.33;4.10;;;12.80;71.10;;;;;;5004981;28;20500;-69
2021/04/09 11:01:26;;;;;;;6.43;3.80;;;12.60;72.90;;;;;;5000872;28;20532;-70
2021/04/09 11:03:53;;;;;;;5.67;4.00;;;13.00;73.20;;;;;;5003630;28;20482;-70
2021/04/09 11:06:20;;;;;;;8.00;3.87;;;13.00;71.80;;;;;;5002169;28;20478;-69
2021/04/09 11:08:57;;;;;;;6.37;3.83;;;13.10;72.80;;;;;;4999438;28;20457;-66
2021/04/09 11:11:32;;;;;;;5.40;3.53;;;13.10;72.70;;;;;;5001469;28;20462;-65
2021/04/09 11:14:08;;;;;;;8.87;4.20;;;13.30;72.20;;;;;;5005670;28;20476;-67
2021/04/09 11:16:52;;;;;;;5.97;3.70;;;13.20;72.30;;;;;;4997051;28;20473;-71
2021/04/09 11:21:45;;;;;;;6.03;3.77;;;13.10;72.30;;;;;;5040732;22;20528;-71
2021/04/09 11:24:13;;;;;;;5.97;3.67;;;13.20;72.30;;;;;;5023650;28;20226;-72
2021/04/09 11:26:39;;;;;;;7.40;3.97;;;13.00;72.50;;;;;;5028144;28;20975;-71
2021/04/09 11:29:07;;;;;;;7.07;3.77;;;13.00;70.70;;;;;;5026536;28;20445;-72
2021/04/09 11:31:34;;;;;;;5.10;3.50;;;13.00;70.80;;;;;;5027844;28;20472;-72
2021/04/09 11:34:05;;;;;;;7.67;3.90;;;12.90;71.10;;;;;;5027106;28;20887;-73
2021/04/09 11:36:39;;;;;;;7.83;3.80;;;13.10;72.30;;;;;;5025845;28;20444;-73
2021/04/09 11:39:08;;;;;;;9.10;4.00;;;13.10;71.40;;;;;;5027782;28;20543;-73
2021/04/09 11:41:35;;;;;;;7.53;3.63;;;13.10;70.00;;;;;;5027295;28;20472;-71
2021/04/09 11:44:33;;;;;;;8.80;3.73;;;13.20;70.80;;;;;;5027992;28;21000;-71
2021/04/09 11:47:17;;;;;;;9.13;3.70;;;13.20;71.60;;;;;;5025649;28;20483;-71
2021/04/09 11:49:44;;;;;;;7.83;3.33;;;13.30;71.00;;;;;;5024265;28;20552;-71
2021/04/09 11:52:11;;;;;;;5.00;3.47;;;13.30;71.40;;;;;;5026979;28;20519;-71
2021/04/09 11:54:39;;;;;;;6.80;3.90;;;13.30;71.50;;;;;;5028234;28;20440;-71
2021/04/09 11:57:19;;;;;;;7.47;3.53;;;13.50;71.30;;;;;;5026812;28;20528;-72
2021/04/09 11:59:46;;;;;;;6.30;3.87;;;13.30;71.00;;;;;;5024706;28;20468;-71
2021/04/09 12:02:18;;;;;;;8.10;4.40;;;13.70;70.50;;;;;;5027608;28;20433;-72
2021/04/09 12:04:45;;;;;;;6.80;4.00;;;13.70;69.00;;;;;;5026935;28;21075;-72
2021/04/09 12:07:13;;;;;;;10.63;3.73;;;13.80;69.50;;;;;;5026376;28;20854;-71
2021/04/09 12:09:40;;;;;;;6.90;3.97;;;13.50;69.00;;;;;;5014222;28;20495;-72
2021/04/09 12:12:07;;;;;;;6.43;3.60;;;13.50;70.10;;;;;;5016024;28;20449;-71
2021/04/09 12:14:35;;;;;;;5.93;3.40;;;13.60;69.20;;;;;;5024284;28;20452;-73
2021/04/09 12:17:03;;;;;;;10.20;4.20;;;13.80;71.10;;;;;;5026822;28;20452;-72
2021/04/09 12:19:29;;;;;;;6.70;4.00;;;14.20;70.50;;;;;;5027673;28;20498;-71
2021/04/09 12:21:56;;;;;;;6.00;3.50;;;14.20;69.00;;;;;;5028162;28;20536;-73
2021/04/09 12:24:22;;;;;;;5.93;3.83;;;14.30;66.90;;;;;;5026222;28;20543;-72
2021/04/09 12:26:48;;;;;;;7.47;3.60;;;14.20;68.80;;;;;;5027130;28;20444;-72
2021/04/09 12:29:15;;;;;;;8.50;3.90;;;14.40;70.30;;;;;;5027813;28;20440;-71
2021/04/09 12:31:41;;;;;;;9.00;3.90;;;14.50;68.40;;;;;;5027442;28;20471;-73
2021/04/09 12:34:08;;;;;;;7.23;3.50;;;14.50;68.30;;;;;;5028544;28;20930;-73
2021/04/09 12:36:36;;;;;;;6.27;3.43;;;14.40;69.30;;;;;;5026409;28;20468;-71
2021/04/09 12:39:05;;;;;;;7.03;4.60;;;14.30;68.30;;;;;;5027271;28;20452;-73
2021/04/09 12:41:31;;;;;;;6.40;3.90;;;14.40;65.30;;;;;;5007840;28;21030;-73
2021/04/09 12:43:59;;;;;;;8.33;4.03;;;14.60;67.80;;;;;;5007445;28;20481;-69
2021/04/09 12:46:26;;;;;;;8.40;3.93;;;14.70;64.80;;;;;;5008172;28;20470;-71
2021/04/09 12:48:53;;;;;;;7.93;4.00;;;14.80;64.80;;;;;;5006941;28;20618;-73
2021/04/09 12:51:21;;;;;;;6.73;3.73;;;14.70;65.10;;;;;;5007666;28;20501;-73